Latest Weather Observations for Hamilton Island

IDQ60801

Issued at 11:42 pm EST Friday 18 September 2020 (issued every 10 minutes, with the page automatically refreshed every 10 minutes)

About weather observations | Map of weather stations | Latest weather observations for QLD | Other Formats
Station Details ID: 033106 Name: HAMILTON ISLAND AIRPORT Lat: -20.37 Lon: 148.95 Height: 58.66 m
Data from the previous 72 hours. | See also: Recent months at Hamilton Island
Date/Time
EST
Temp
°C
App
Temp
°C
Dew
Point
°C
Rel
Hum
%
Delta-T
°C
Wind Press
QNH
hPa
Press
MSL
hPa
Rain since
9am
mm
Dir  Spd
km/h
Gust
km/h
Spd
kts
Gust
kts
18/11:30pm 21.7 17.8 18.7 83 1.9 ESE 37 46 20 25 1020.3 1020.0 0.0
18/11:00pm 21.7 16.8 18.1 80 2.2 ESE 41 48 22 26 1020.3 1020.0 0.0
18/10:30pm 21.8 17.9 18.8 83 1.9 ESE 37 46 20 25 1020.4 1020.1 0.0
18/10:00pm 21.9 17.7 18.1 79 2.4 ESE 37 44 20 24 1020.2 1019.9 0.0
18/09:30pm 21.8 17.4 19.2 85 1.7 SE 41 46 22 25 1020.4 1020.1 0.0
18/09:00pm 21.7 17.2 19.1 85 1.6 SE 41 46 22 25 1020.3 1020.0 0.0
18/08:30pm 21.9 18.4 18.7 82 2.0 SE 35 41 19 22 1020.8 1020.5 0.0
18/08:00pm 21.9 18.8 18.3 80 2.2 ESE 32 41 17 22 1020.7 1020.4 0.0
18/07:30pm 21.8 18.9 18.8 83 1.9 SE 32 37 17 20 1020.4 1020.1 0.0
18/07:00pm 21.9 19.1 19.1 84 1.8 SE 32 37 17 20 1020.4 1020.1 0.0
18/06:30pm 21.8 18.8 18.6 82 2.0 SE 32 37 17 20 1020.1 1019.8 0.0
18/06:00pm 21.9 18.7 18.7 82 2.0 SE 33 37 18 20 1019.8 1019.5 0.0
18/05:30pm 21.9 18.5 18.1 79 2.4 ESE 33 37 18 20 1019.8 1019.5 0.0
18/05:00pm 22.3 19.1 18.1 77 2.6 ESE 32 35 17 19 1019.5 1019.2 0.0
18/04:30pm 22.4 18.7 18.4 78 2.5 ESE 35 43 19 23 1019.4 1019.1 0.0
18/04:00pm 23.0 19.8 18.5 76 2.8 ESE 33 41 18 22 1019.3 1019.0 0.0
18/03:30pm 23.1 20.2 18.8 77 2.7 ESE 32 37 17 20 1019.4 1019.1 0.0
18/03:00pm 23.4 20.2 18.7 75 3.0 ESE 33 37 18 20 1019.6 1019.3 0.0
18/02:30pm 24.3 20.5 18.2 68 3.8 ESE 35 41 19 22 1019.7 1019.4 0.0
18/02:00pm 24.0 20.8 18.2 70 3.6 ESE 32 35 17 19 1020.2 1019.9 0.0
18/01:30pm 23.9 19.9 18.5 72 3.4 ESE 37 43 20 23 1020.3 1020.0 0.0
18/01:00pm 24.1 20.6 18.7 72 3.4 ESE 35 43 19 23 1020.7 1020.4 0.0
18/12:30pm 24.1 19.3 18.3 70 3.7 ESE 41 48 22 26 1020.7 1020.4 0.0
18/12:00pm 24.3 20.1 18.9 72 3.4 ESE 39 44 21 24 1021.1 1020.8 0.0
18/11:30am 23.9 19.7 19.0 74 3.1 ESE 39 44 21 24 1021.8 1021.5 0.0
18/11:00am 23.2 19.1 18.3 74 3.1 ESE 37 44 20 24 1022.3 1022.0 0.0
18/10:30am 23.5 19.3 18.8 75 3.0 ESE 39 46 21 25 1022.1 1021.8 0.0
18/10:00am 23.0 19.5 18.7 77 2.7 ESE 35 39 19 21 1022.5 1022.2 0.0
18/09:30am 23.3 19.4 18.8 76 2.9 ESE 37 43 20 23 1022.5 1022.2 0.0
18/09:00am 23.6 18.6 18.9 75 3.0 ESE 43 52 23 28 1022.3 1022.0 0.0
18/08:30am 22.5 17.2 18.1 76 2.8 ESE 43 50 23 27 1022.2 1021.9 0.0
18/08:00am 23.0 18.2 18.5 76 2.8 ESE 41 48 22 26 1022.1 1021.8 0.0
18/07:30am 22.3 18.1 18.9 81 2.2 ESE 39 46 21 25 1021.6 1021.3 0.0
18/07:00am 21.9 17.7 18.9 83 1.9 ESE 39 46 21 25 1021.0 1020.7 0.0
18/06:30am 21.7 17.6 19.1 85 1.6 SE 39 46 21 25 1021.0 1020.7 0.0
18/06:07am 21.5 18.1 18.9 85 1.6 SE 35 43 19 23 1020.8 1020.5 0.0
18/06:00am 21.4 17.6 19.0 86 1.5 SE 37 43 20 23 1020.7 1020.4 0.0
18/05:30am 21.4 17.1 18.6 84 1.8 SE 39 44 21 24 1020.3 1020.0 0.0
18/05:00am 21.4 18.0 19.0 86 1.5 SE 35 43 19 23 1020.0 1019.7 0.0
18/04:57am 21.5 17.8 19.1 86 1.5 SE 37 43 20 23 1020.0 1019.7 0.0
18/04:30am 21.5 18.5 19.1 86 1.5 ESE 33 39 18 21 1019.9 1019.6 0.0
18/04:00am 21.4 17.5 18.8 85 1.6 SE 37 43 20 23 1019.8 1019.5 0.0
18/03:38am 21.5 17.7 18.9 85 1.6 SE 37 41 20 22 1019.6 1019.3 0.0
18/03:30am 21.4 18.0 19.0 86 1.5 SE 35 39 19 21 1019.6 1019.3 0.0
18/03:00am 21.6 18.7 19.3 87 1.5 SE 33 39 18 21 1020.0 1019.7 0.0
18/02:30am 21.6 18.3 19.3 87 1.5 SE 35 39 19 21 1019.9 1019.6 0.0
18/02:00am 21.6 18.7 19.3 87 1.5 SE 33 37 18 20 1020.2 1019.9 0.0
18/01:30am 21.6 18.4 19.5 88 1.3 SE 35 39 19 21 1020.3 1020.0 0.0
18/01:00am 21.7 19.0 19.6 88 1.3 SE 33 37 18 20 1020.5 1020.2 0.0
18/12:30am 21.8 18.8 19.9 89 1.2 SE 35 39 19 21 1020.9 1020.6 0.0
18/12:00am 21.9 19.5 20.0 89 1.2 ESE 32 37 17 20 1021.3 1021.0 0.0
 
Date/Time
EST
Temp
°C
App
Temp
°C
Dew
Point
°C
Rel
Hum
%
Delta-T
°C
Wind Press
QNH
hPa
Press
MSL
hPa
Rain since
9am
mm
Dir  Spd
km/h
Gust
km/h
Spd
kts
Gust
kts
17/11:52pm 21.9 19.4 19.8 88 1.3 ESE 32 39 17 21 1021.1 1020.8 0.0
17/11:42pm 21.9 19.5 20.0 89 1.2 ESE 32 37 17 20 1021.3 1021.0 0.0
17/11:30pm 21.9 19.1 19.5 86 1.5 ESE 33 39 18 21 1021.3 1021.0 0.0
17/11:00pm 21.9 19.7 19.6 87 1.5 SE 30 35 16 19 1021.7 1021.4 0.0
17/10:30pm 22.0 19.5 19.7 87 1.5 ESE 32 37 17 20 1021.5 1021.2 0.0
17/10:00pm 22.1 18.8 19.3 84 1.8 ESE 35 43 19 23 1021.6 1021.3 0.0
17/09:30pm 22.1 19.1 19.8 87 1.5 ESE 35 41 19 22 1021.2 1020.9 0.0
17/09:00pm 22.2 19.8 20.3 89 1.2 SE 33 39 18 21 1021.3 1021.0 0.0
17/08:30pm 22.0 19.0 19.9 88 1.3 ESE 35 43 19 23 1021.0 1020.7 0.0
17/08:25pm 22.1 19.3 20.2 89 1.2 SE 35 39 19 21 1021.1 1020.8 0.0
17/08:12pm 22.1 18.8 20.0 88 1.4 ESE 37 43 20 23 1021.0 1020.7 0.0
17/08:00pm 22.0 18.9 19.7 87 1.5 SE 35 41 19 22 1021.1 1020.8 0.0
17/07:30pm 22.1 19.8 20.2 89 1.2 SE 32 35 17 19 1021.0 1020.7 0.0
17/07:00pm 22.0 19.5 20.1 89 1.2 SE 33 39 18 21 1020.9 1020.6 0.0
17/06:47pm 22.1 19.5 20.0 88 1.4 SE 33 39 18 21 1021.0 1020.7 0.0
17/06:30pm 22.1 19.5 19.8 87 1.5 SE 33 39 18 21 1020.7 1020.4 0.0
17/06:00pm 22.2 19.5 19.7 86 1.6 SE 33 39 18 21 1019.8 1019.5 0.0
17/05:57pm 22.2 19.5 19.7 86 1.6 SE 33 39 18 21 1019.9 1019.6 0.0
17/05:30pm 22.3 18.8 19.7 85 1.7 SE 37 44 20 24 1019.8 1019.5 0.0
17/05:10pm 22.4 19.0 19.8 85 1.7 SE 37 44 20 24 1019.7 1019.4 0.0
17/05:00pm 22.5 19.4 19.7 84 1.8 SE 35 44 19 24 1019.6 1019.3 0.0
17/04:30pm 22.8 20.3 19.8 83 1.9 SE 32 35 17 19 1019.5 1019.2 0.0
17/04:26pm 23.0 20.5 19.8 82 2.1 SE 32 35 17 19 1019.4 1019.1 0.0
17/04:00pm 22.9 20.7 19.5 81 2.2 SE 30 33 16 18 1019.5 1019.2 0.0
17/03:30pm 23.4 20.4 19.8 80 2.3 ESE 35 41 19 22 1018.8 1018.5 0.0
17/03:07pm 23.1 20.4 19.3 79 2.4 SE 32 37 17 20 1018.6 1018.3 0.0
17/03:00pm 23.4 20.8 19.5 79 2.5 SE 32 39 17 21 1018.7 1018.4 0.0
17/02:30pm 23.9 19.8 19.2 75 3.0 ESE 39 43 21 23 1018.7 1018.4 0.0
17/02:03pm 24.4 21.6 19.5 74 3.2 ESE 33 41 18 22 1019.1 1018.8 0.0
17/02:00pm 24.4 21.8 19.9 76 2.9 SE 33 41 18 22 1019.2 1018.9 0.0
17/01:30pm 23.7 20.1 19.4 77 2.8 SE 37 41 20 22 1019.7 1019.4 0.0
17/01:16pm 24.3 21.8 20.2 78 2.7 SE 33 39 18 21 1019.9 1019.6 0.0
17/01:00pm 24.0 21.6 19.9 78 2.6 SE 32 39 17 21 1020.2 1019.9 0.0
17/12:30pm 24.0 21.5 19.7 77 2.8 SE 32 39 17 21 1020.7 1020.4 0.0
17/12:00pm 23.2 20.3 19.2 78 2.5 SE 33 41 18 22 1021.1 1020.8 0.0
17/11:30am 23.5 20.2 19.2 77 2.7 SE 35 39 19 21 1021.6 1021.3 0.0
17/11:13am 23.9 21.8 19.8 78 2.6 SE 30 35 16 19 1021.9 1021.6 0.0
17/11:00am 23.6 20.9 19.7 79 2.5 SE 33 39 18 21 1022.1 1021.8 0.0
17/10:44am 23.6 20.8 19.5 78 2.6 SE 33 37 18 20 1022.3 1022.0 0.0
17/10:30am 24.1 21.5 19.6 76 2.9 SE 32 39 17 21 1022.3 1022.0 0.0
17/10:00am 23.6 20.3 19.3 77 2.7 SE 35 41 19 22 1022.5 1022.2 0.0
17/09:30am 22.7 19.1 19.3 81 2.2 SE 37 43 20 23 1022.5 1022.2 0.0
17/09:00am 22.7 19.0 19.1 80 2.3 SE 37 43 20 23 1022.3 1022.0 0.0
17/08:32am 22.8 19.6 19.4 81 2.2 SE 35 39 19 21 1022.1 1021.8 0.0
17/08:30am 22.8 19.6 19.4 81 2.2 SE 35 41 19 22 1022.1 1021.8 0.0
17/08:00am 22.2 19.1 19.6 85 1.7 SE 35 41 19 22 1021.7 1021.4 0.0
17/07:43am 22.1 19.4 19.3 84 1.8 SE 32 35 17 19 1021.5 1021.2 0.0
17/07:31am 22.0 19.3 19.2 84 1.8 SE 32 37 17 20 1021.3 1021.0 0.0
17/07:30am 22.0 19.3 19.2 84 1.8 SE 32 37 17 20 1021.2 1020.9 0.0
17/07:00am 21.8 19.2 19.4 86 1.5 SE 32 37 17 20 1020.9 1020.6 0.0
17/06:30am 21.6 18.7 19.2 86 1.5 SE 33 43 18 23 1020.4 1020.1 0.0
17/06:00am 21.5 18.5 19.1 86 1.5 SE 33 39 18 21 1020.1 1019.8 0.0
17/05:30am 21.3 17.9 18.9 86 1.5 SE 35 43 19 23 1019.6 1019.3 0.0
17/05:00am 21.3 17.5 18.9 86 1.5 SE 37 44 20 24 1019.3 1019.0 0.0
17/04:30am 21.3 17.9 19.0 87 1.5 SE 35 41 19 22 1019.1 1018.8 0.0
17/04:00am 21.5 18.2 19.2 87 1.5 SE 35 43 19 23 1019.2 1018.9 0.0
17/03:34am 21.4 18.4 19.0 86 1.5 SE 33 37 18 20 1019.2 1018.9 0.0
17/03:30am 21.4 18.4 19.0 86 1.5 SE 33 37 18 20 1019.2 1018.9 0.0
17/03:26am 21.3 18.2 18.9 86 1.5 SE 33 35 18 19 1019.3 1019.0 0.0
17/03:10am 21.5 18.6 19.2 87 1.5 SE 33 35 18 19 1019.4 1019.1 0.0
17/03:00am 21.5 18.5 19.1 86 1.5 SE 33 39 18 21 1019.4 1019.1 0.0
17/02:41am 21.3 17.9 18.9 86 1.5 SE 35 43 19 23 1019.3 1019.0 0.0
17/02:30am 21.4 17.7 19.1 87 1.5 SE 37 43 20 23 1019.5 1019.2 0.0
17/02:00am 21.4 18.0 19.0 86 1.5 SE 35 43 19 23 1019.8 1019.5 0.0
17/01:30am 21.4 18.6 19.1 87 1.5 SE 32 39 17 21 1020.4 1020.1 0.0
17/01:26am 21.4 18.4 19.0 86 1.5 SE 33 39 18 21 1020.4 1020.1 0.0
17/01:16am 21.5 18.1 19.1 86 1.5 SE 35 41 19 22 1020.5 1020.2 0.0
17/01:00am 21.5 17.8 19.2 87 1.5 SE 37 43 20 23 1020.6 1020.3 0.0
17/12:52am 21.4 17.6 19.0 86 1.5 SE 37 43 20 23 1020.6 1020.3 0.0
17/12:30am 21.6 18.3 19.2 86 1.5 SE 35 43 19 23 1021.1 1020.8 0.0
17/12:00am 21.8 17.7 19.2 85 1.6 ESE 39 44 21 24 1021.6 1021.3 0.0
 
Date/Time
EST
Temp
°C
App
Temp
°C
Dew
Point
°C
Rel
Hum
%
Delta-T
°C
Wind Press
QNH
hPa
Press
MSL
hPa
Rain since
9am
mm
Dir  Spd
km/h
Gust
km/h
Spd
kts
Gust
kts
16/11:30pm 21.8 18.2 19.4 86 1.5 ESE 37 46 20 25 1021.8 1021.5 0.0
16/11:00pm 21.9 17.7 18.9 83 1.9 ESE 39 46 21 25 1022.1 1021.8 0.0
16/10:30pm 21.8 18.1 19.2 85 1.7 ESE 37 44 20 24 1022.1 1021.8 0.0
16/10:23pm 21.9 18.4 19.5 86 1.5 ESE 37 43 20 23 1022.2 1021.9 0.0
16/10:13pm 21.8 18.1 19.2 85 1.7 ESE 37 43 20 23 1022.3 1022.0 0.0
16/10:00pm 21.8 18.5 19.2 85 1.6 ESE 35 41 19 22 1022.3 1022.0 0.0
16/09:30pm 21.9 18.7 19.5 86 1.5 ESE 35 43 19 23 1022.2 1021.9 0.0
16/09:02pm 21.9 17.8 19.1 84 1.8 ESE 39 44 21 24 1022.0 1021.7 0.0
16/09:00pm 22.0 18.1 19.5 86 1.6 ESE 39 44 21 24 1022.1 1021.8 0.0
16/08:30pm 21.9 17.9 19.3 85 1.7 ESE 39 46 21 25 1021.7 1021.4 0.0
16/08:00pm 22.0 18.2 19.7 87 1.5 ESE 39 46 21 25 1021.7 1021.4 0.0
16/07:59pm 21.9 18.0 19.5 86 1.5 ESE 39 46 21 25 1021.6 1021.3 0.0
16/07:58pm 21.9 17.9 19.3 85 1.7 ESE 39 46 21 25 1021.6 1021.3 0.0
16/07:30pm 21.9 18.6 19.3 85 1.7 ESE 35 43 19 23 1021.4 1021.1 0.0
16/07:28pm 21.9 18.5 19.1 84 1.8 ESE 35 43 19 23 1021.3 1021.0 0.0
16/07:00pm 22.0 18.8 19.4 85 1.7 ESE 35 41 19 22 1021.0 1020.7 0.0
16/06:43pm 21.9 18.3 19.3 85 1.7 ESE 37 46 20 25 1020.7 1020.4 0.0
16/06:30pm 21.9 18.2 19.1 84 1.8 ESE 37 46 20 25 1020.5 1020.2 0.0
16/06:07pm 21.9 18.4 19.6 87 1.5 SE 37 43 20 23 1020.3 1020.0 0.0
16/06:00pm 21.9 18.4 19.5 86 1.5 ESE 37 43 20 23 1020.1 1019.8 0.0
16/05:43pm 22.0 18.8 19.5 86 1.6 ESE 35 43 19 23 1019.9 1019.6 0.0
16/05:30pm 22.1 18.4 19.1 83 1.9 ESE 37 44 20 24 1019.9 1019.6 0.0
16/05:24pm 22.0 18.2 19.0 83 1.9 ESE 37 44 20 24 1019.8 1019.5 0.0
16/05:22pm 22.0 18.7 19.2 84 1.8 ESE 35 41 19 22 1019.8 1019.5 0.0
16/05:00pm 22.3 19.2 19.7 85 1.7 SE 35 41 19 22 1019.7 1019.4 0.0
16/04:30pm 22.2 18.2 19.4 84 1.8 ESE 39 44 21 24 1019.3 1019.0 0.0
16/04:00pm 22.5 18.9 19.3 82 2.0 SE 37 44 20 24 1019.1 1018.8 0.0
16/03:30pm 22.8 20.1 19.6 82 2.1 SE 33 39 18 21 1019.1 1018.8 0.0
16/03:03pm 23.5 20.9 19.4 78 2.6 SE 32 37 17 20 1019.1 1018.8 0.0
16/03:00pm 23.5 20.9 19.4 78 2.6 SE 32 35 17 19 1019.1 1018.8 0.0
16/02:30pm 22.9 20.0 19.3 80 2.3 SE 33 41 18 22 1019.4 1019.1 0.0
16/02:00pm 23.3 20.0 19.2 78 2.6 SE 35 41 19 22 1019.7 1019.4 0.0
16/01:30pm 24.2 20.3 19.5 75 3.0 SE 39 44 21 24 1020.0 1019.7 0.0
16/01:00pm 23.8 20.5 19.3 76 2.9 SE 35 44 19 24 1020.3 1020.0 0.0
16/12:30pm 24.5 22.4 19.8 75 3.0 SE 30 35 16 19 1020.8 1020.5 0.0
16/12:00pm 24.4 21.9 19.7 75 3.0 SE 32 39 17 21 1021.2 1020.9 0.0
16/11:30am 24.5 21.9 19.8 75 3.0 SE 33 41 18 22 1021.6 1021.3 0.0
16/11:00am 23.1 18.9 18.8 77 2.7 ESE 39 46 21 25 1021.9 1021.6 0.0
16/10:30am 23.5 19.5 19.4 78 2.6 SE 39 46 21 25 1022.1 1021.8 0.0
16/10:28am 23.3 19.8 19.5 79 2.4 SE 37 46 20 25 1022.1 1021.8 0.0
16/10:00am 23.3 21.0 20.1 82 2.1 SE 32 39 17 21 1022.3 1022.0 0.0
16/09:30am 22.6 19.8 19.4 82 2.0 SE 33 39 18 21 1022.3 1022.0 0.0
16/09:00am 21.8 18.5 19.2 85 1.6 SE 35 43 19 23 1022.0 1021.7 0.0
16/08:30am 20.9 17.5 19.0 89 1.2 SE 35 41 19 22 1022.0 1021.7 0.0
16/08:09am 20.9 17.4 18.8 88 1.3 ESE 35 43 19 23 1021.9 1021.6 0.0
16/08:00am 20.4 15.6 18.5 89 1.2 ESE 41 54 22 29 1021.7 1021.4 0.0
16/07:50am 21.1 18.2 19.2 89 1.2 SE 33 54 18 29 1021.6 1021.3 0.0
16/07:45am 21.1 18.8 19.4 90 1.1 SE 30 35 16 19 1021.6 1021.3 0.0
16/07:30am 20.9 17.7 19.4 91 1.0 SE 35 44 19 24 1021.4 1021.1 0.0
16/07:04am 20.8 16.5 18.7 88 1.3 ESE 39 44 21 24 1020.9 1020.6 0.0
16/07:00am 20.8 17.0 18.9 89 1.2 ESE 37 44 20 24 1020.9 1020.6 0.0
16/06:30am 21.1 16.6 19.0 88 1.3 ESE 41 52 22 28 1020.3 1020.0 0.0
16/06:00am 21.0 17.0 18.6 86 1.5 SE 37 50 20 27 1019.9 1019.6 0.0
16/05:30am 20.9 16.7 18.8 88 1.3 SE 39 48 21 26 1019.6 1019.3 0.0
16/05:00am 20.8 16.0 18.4 86 1.5 SE 41 50 22 27 1019.5 1019.2 0.0
16/04:30am 21.0 16.4 18.8 87 1.4 SE 41 48 22 26 1019.3 1019.0 0.0
16/04:00am 20.9 16.6 18.7 87 1.4 ESE 39 46 21 25 1019.1 1018.8 0.0
16/03:30am 21.1 16.5 18.9 87 1.4 ESE 41 50 22 27 1019.1 1018.8 0.0
16/03:00am 21.0 16.4 18.8 87 1.4 ESE 41 46 22 25 1019.2 1018.9 0.0
16/02:46am 21.1 16.8 18.7 86 1.5 ESE 39 44 21 24 1019.2 1018.9 0.0
16/02:30am 21.3 17.0 18.7 85 1.6 ESE 39 44 21 24 1019.4 1019.1 0.0
16/02:08am 21.4 17.1 18.6 84 1.8 ESE 39 46 21 25 1019.8 1019.5 0.0
16/02:00am 21.4 17.1 18.6 84 1.8 ESE 39 46 21 25 1019.9 1019.6 0.0
16/01:53am 21.5 17.3 18.9 85 1.6 ESE 39 46 21 25 1020.1 1019.8 0.0
16/01:38am 21.5 17.7 18.9 85 1.6 ESE 37 46 20 25 1020.2 1019.9 0.0
16/01:30am 21.5 16.9 18.9 85 1.6 ESE 41 48 22 26 1020.4 1020.1 0.0
16/01:00am 21.3 16.5 18.5 84 1.8 ESE 41 46 22 25 1020.9 1020.6 0.0
16/12:45am 21.4 16.4 18.8 85 1.6 ESE 43 48 23 26 1021.1 1020.8 0.0
16/12:30am 21.4 17.2 18.8 85 1.6 ESE 39 50 21 27 1021.3 1021.0 0.0
16/12:00am 21.5 16.7 18.3 82 2.0 SE 41 48 22 26 1021.7 1021.4 0.0

Other formats

Comma delimited format used in spreadsheet applications
http://www.bom.gov.au/fwo/IDQ60801/IDQ60801.94368.axf

JavaScript Object Notation format (JSON) in row-major order
http://www.bom.gov.au/fwo/IDQ60801/IDQ60801.94368.json

Data quality

Most of these data are generated automatically and are frequently updated. Quality checks on data are not normally performed. It is possible for incorrect values to appear. Refer to information at About Latest Weather Observations and please check the disclaimer before using these data.